createdAt,value
2022-09-01T04:24:24.543Z,2.07
2022-09-01T04:29:47.048Z,2.03
2022-09-01T04:34:49.725Z,1.77
2022-09-01T04:39:56.887Z,2.10
2022-09-01T04:45:03.123Z,2.60
2022-09-01T04:50:17.566Z,2.43
2022-09-01T04:55:50.014Z,2.20
2022-09-01T05:01:02.306Z,2.30
2022-09-01T05:06:22.284Z,2.00
2022-09-01T05:11:59.892Z,1.80
2022-09-01T05:38:03.937Z,2.07
2022-09-01T05:43:08.148Z,1.43
2022-09-01T05:48:12.669Z,1.60
2022-09-01T05:53:17.437Z,1.90
2022-09-01T05:58:26.285Z,1.30
2022-09-01T06:03:30.489Z,1.30
2022-09-01T06:08:46.710Z,1.37
2022-09-01T06:13:55.208Z,1.40
2022-09-01T06:18:59.596Z,1.13
2022-09-01T06:24:02.214Z,1.07
2022-09-01T06:29:10.600Z,1.17
2022-09-01T06:34:20.876Z,1.30
2022-09-01T06:39:26.602Z,0.80
2022-09-01T06:44:32.256Z,0.70
2022-09-01T06:49:41.045Z,0.80
2022-09-01T06:54:54.089Z,0.90
2022-09-01T06:59:57.251Z,0.70
2022-09-01T07:05:00.528Z,0.90
2022-09-01T07:10:17.956Z,1.00
2022-09-01T07:26:24.625Z,1.73
2022-09-01T07:31:51.259Z,1.70
2022-09-01T07:42:59.009Z,1.90
2022-09-01T07:48:36.061Z,0.53
2022-09-01T07:53:41.264Z,1.00
2022-09-01T07:58:55.735Z,0.50
2022-09-01T08:04:02.296Z,0.80
2022-09-01T08:09:07.602Z,0.63
2022-09-01T08:14:18.277Z,0.90
2022-09-01T08:19:21.837Z,0.50
2022-09-01T08:24:40.506Z,0.40
2022-09-01T08:29:43.452Z,0.30
2022-09-01T08:34:46.656Z,0.30
2022-09-01T08:39:49.571Z,0.30
2022-09-01T08:45:07.738Z,0.27
2022-09-01T08:50:12.517Z,0.30
2022-09-01T08:55:56.366Z,0.50
2022-09-01T09:01:36.551Z,0.47
2022-09-01T09:07:34.556Z,1.30
2022-09-01T09:13:09.693Z,0.70
2022-09-01T09:18:39.745Z,0.40
2022-09-01T09:23:55.983Z,0.50
2022-09-01T09:28:58.969Z,0.30
2022-09-01T09:34:02.074Z,0.40
2022-09-01T09:39:08.291Z,0.40
2022-09-01T09:44:32.884Z,0.43
2022-09-01T09:49:42.213Z,0.47
2022-09-01T09:55:04.715Z,0.30
2022-09-01T10:00:15.938Z,0.20
2022-09-01T10:05:22.559Z,0.20
2022-09-01T10:10:42.712Z,0.47
2022-09-01T10:15:53.253Z,0.20
2022-09-01T10:21:24.180Z,0.30
2022-09-01T10:26:41.563Z,0.40
2022-09-01T10:31:43.984Z,1.40
2022-09-01T10:36:54.934Z,0.40
2022-09-01T10:42:07.444Z,0.40
2022-09-01T10:47:14.729Z,0.23
2022-09-01T10:52:43.993Z,0.50
2022-09-01T10:59:31.291Z,0.37
2022-09-01T11:03:53.495Z,0.20
2022-09-01T11:09:06.546Z,0.40
2022-09-01T11:14:26.932Z,0.33
2022-09-01T11:19:47.152Z,0.30
2022-09-01T11:24:58.093Z,0.20
2022-09-01T11:30:41.897Z,0.30
2022-09-01T11:35:46.825Z,0.53
2022-09-01T11:40:57.141Z,0.60
2022-09-01T11:46:25.073Z,0.40
2022-09-01T11:51:27.952Z,0.20
2022-09-01T11:56:30.566Z,0.30
2022-09-01T12:01:40.409Z,0.30
2022-09-01T12:06:53.523Z,0.40
2022-09-01T12:11:56.399Z,0.30
2022-09-01T12:17:06.784Z,0.30
2022-09-01T12:22:21.423Z,0.20
2022-09-01T12:27:23.969Z,0.20
2022-09-01T12:32:26.470Z,0.30
2022-09-01T12:37:29.640Z,0.60
2022-09-01T12:42:38.963Z,0.37
2022-09-01T12:47:50.579Z,0.50
2022-09-01T12:52:58.367Z,0.30
2022-09-01T12:58:07.712Z,0.50
2022-09-01T13:03:17.969Z,0.33
2022-09-01T13:08:27.177Z,2.30
2022-09-01T13:13:30.434Z,0.33
2022-09-01T13:18:32.988Z,0.60
2022-09-01T13:23:35.678Z,0.37
2022-09-01T13:28:40.431Z,0.30
2022-09-01T13:39:06.086Z,0.30
2022-09-01T13:44:11.088Z,0.40
2022-09-01T13:54:36.024Z,0.30
2022-09-01T13:59:39.187Z,0.30
2022-09-01T14:04:41.845Z,0.40
2022-09-01T14:09:44.999Z,0.30
2022-09-01T14:20:16.414Z,0.33
2022-09-01T14:25:21.189Z,0.20
2022-09-01T14:30:31.161Z,0.40
2022-09-01T14:35:34.400Z,0.40
2022-09-01T14:40:38.062Z,0.30
2022-09-01T14:45:44.577Z,0.40
2022-09-01T14:50:48.973Z,0.30
2022-09-01T14:55:55.557Z,0.40
2022-09-01T15:01:11.964Z,0.50
2022-09-01T15:06:22.356Z,0.37
2022-09-01T15:11:24.814Z,0.40
2022-09-01T15:16:28.403Z,0.50
2022-09-01T15:21:34.002Z,0.50
2022-09-01T15:26:38.298Z,0.50
2022-09-01T15:31:41.815Z,0.20
2022-09-01T15:36:45.449Z,0.57
2022-09-01T15:41:47.956Z,0.60
2022-09-01T15:46:51.333Z,0.40
2022-09-01T15:51:56.894Z,0.40
2022-09-01T15:56:59.325Z,0.43
2022-09-01T16:02:03.105Z,0.60
2022-09-01T16:07:05.709Z,0.27
2022-09-01T16:12:08.494Z,0.40
2022-09-01T16:17:13.977Z,0.43
2022-09-01T16:22:26.664Z,0.30
2022-09-01T16:27:40.741Z,0.30
2022-09-01T16:32:47.006Z,0.53
2022-09-01T16:38:28.258Z,0.40
2022-09-01T16:43:51.144Z,0.50
2022-09-01T16:49:35.464Z,0.30
2022-09-01T16:54:50.320Z,0.50
2022-09-01T16:59:56.355Z,0.40
2022-09-01T17:05:22.603Z,0.60
2022-09-01T17:10:42.127Z,0.50
2022-09-01T17:15:50.748Z,0.40
2022-09-01T17:21:02.282Z,0.50
2022-09-01T17:26:13.956Z,0.50
2022-09-01T17:31:28.264Z,0.40
2022-09-01T17:36:53.709Z,0.50
2022-09-01T17:42:02.864Z,0.63
2022-09-01T17:47:17.695Z,0.93
2022-09-01T17:52:47.383Z,0.60
2022-09-01T17:58:32.375Z,0.50
2022-09-01T18:03:51.850Z,0.83
2022-09-01T18:08:58.224Z,1.20
2022-09-01T18:14:13.739Z,1.67
2022-09-01T18:19:22.210Z,1.50
2022-09-01T18:24:53.119Z,2.10
2022-09-01T18:29:56.913Z,3.17
2022-09-01T18:35:26.773Z,3.73
2022-09-01T18:40:33.649Z,3.40
2022-09-01T18:46:13.375Z,3.87
2022-09-01T18:51:33.028Z,3.90
2022-09-01T18:56:53.225Z,5.90
2022-09-01T19:02:16.223Z,6.87
2022-09-01T19:08:01.758Z,6.10
2022-09-01T19:13:19.168Z,8.00
2022-09-01T19:18:42.515Z,8.70
2022-09-01T19:23:53.433Z,8.90
2022-09-01T19:29:01.411Z,7.57
2022-09-01T19:34:11.638Z,6.10
2022-09-01T19:39:25.358Z,7.63
2022-09-01T19:44:53.240Z,6.90
2022-09-01T19:50:10.329Z,5.50
2022-09-01T19:55:20.484Z,4.50
2022-09-01T20:00:31.774Z,3.30
2022-09-01T20:05:56.315Z,3.60
2022-09-01T20:11:39.747Z,2.50
2022-09-01T20:16:49.719Z,1.67
2022-09-01T20:21:52.472Z,1.67
2022-09-01T20:27:06.316Z,1.60
2022-09-01T20:32:21.608Z,1.37
2022-09-01T20:37:36.680Z,1.23
2022-09-01T20:43:10.080Z,1.30
2022-09-01T20:48:19.727Z,1.00
2022-09-01T20:53:38.705Z,1.87
2022-09-01T20:58:47.616Z,1.10
2022-09-01T21:04:03.268Z,1.50
2022-09-01T21:09:16.230Z,1.20
2022-09-01T21:14:38.300Z,1.30
2022-09-01T21:19:59.048Z,1.00
2022-09-01T21:25:01.811Z,1.23
2022-09-01T21:30:11.059Z,1.23
2022-09-01T21:35:18.979Z,1.20
2022-09-01T21:40:24.250Z,1.30
2022-09-01T21:45:27.258Z,1.40
2022-09-01T21:50:30.148Z,1.33
2022-09-01T21:55:33.387Z,1.40
2022-09-01T22:00:43.315Z,1.30
2022-09-01T22:05:45.786Z,1.43
2022-09-01T22:10:51.956Z,1.30
2022-09-01T22:15:54.766Z,1.23
2022-09-01T22:21:09.249Z,1.40
2022-09-01T22:26:22.133Z,1.40
2022-09-01T22:31:26.701Z,1.40
2022-09-01T22:36:32.923Z,1.37
2022-09-01T22:41:36.467Z,1.57
2022-09-01T22:46:39.877Z,1.53
2022-09-01T22:51:43.347Z,1.50
2022-09-01T22:56:46.252Z,1.63
2022-09-01T23:01:48.849Z,1.40
2022-09-01T23:06:54.009Z,1.27
2022-09-01T23:11:56.726Z,1.43
2022-09-01T23:16:59.244Z,1.63
2022-09-01T23:22:03.552Z,1.60
2022-09-01T23:27:06.040Z,1.50
2022-09-01T23:32:08.477Z,1.67
2022-09-01T23:37:10.919Z,1.40
2022-09-01T23:42:13.427Z,1.60
2022-09-01T23:47:16.068Z,1.50
2022-09-01T23:52:18.499Z,1.67
2022-09-01T23:57:21.522Z,2.27
